Kyra Zafira — D5BN9 — position and weather

sailwx.info

Track history (hours):
 
Tides and Currents Weather Stations Pressure Air Temp Water Temp Dewpoint Dewpoint Depression Visibility Wind Speed Wind Dir Waves Ship Positions

Kyra Zafira

Last reported at 2018-Jul-18 18:21 UTC. Time now 2018-Jul-23 11:39 UTC.
Position N 31°28' E 032°18'.

Length 229 m; draft 13.9 m.

Type: Ship (hazmat cat D). MMSI: 636015567.

Date/timePositionNaut miles runAvg speedWind from/ knotsBaromVisibWave heightAir tempDewpointWater temp
2018-Jul-18 18:21N 31°28' E 032°18'0 0.0
2018-Jul-18 17:57N 31°28' E 032°18'0 0.0
2018-Jul-18 13:25N 31°28' E 032°18'0 0.0
2018-Jul-18 12:58N 31°28' E 032°18'0 0.0
2018-Jul-18 12:14N 31°28' E 032°18'0 0.0
2018-Jul-18 11:56N 31°28' E 032°18'0 0.0
2018-Jul-18 03:08N 31°28' E 032°18'0 0.0
2018-Jul-18 02:59N 31°28' E 032°18'0 0.1
2018-Jul-18 01:36N 31°28' E 032°18'0 3.4
2018-Jul-18 01:31N 31°28' E 032°18'8 7.3
2018-Jul-18 00:23N 31°33' E 032°11'410.8
2018-Jul-18 00:00N 31°36' E 032°07'1511.2
2018-Jul-17 22:41N 31°47' E 031°55'311.8
2018-Jul-17 22:24N 31°49' E 031°52'411.7
2018-Jul-17 22:01N 31°52' E 031°48'6511.5
2018-Jul-17 16:25N 32°39' E 030°56'611.6
2018-Jul-17 15:56N 32°43' E 030°52'1011.6
2018-Jul-17 15:06N 32°51' E 030°44'111.7
2018-Jul-17 15:00N 32°51' E 030°43'2211.4
2018-Jul-17 13:06N 33°08' E 030°26'111.3
2018-Jul-17 13:00N 33°09' E 030°25'911.2
2018-Jul-17 12:10N 33°15' E 030°17'411.1
2018-Jul-17 11:50N 33°18' E 030°14'32611.7
2018-Jul-16 07:52N 37°27' E 025°56'512.9
2018-Jul-16 07:31N 37°32' E 025°53'713.2
2018-Jul-16 06:58N 37°38' E 025°50'613.3
2018-Jul-16 06:30N 37°44' E 025°47'12412.6
2018-Jul-15 20:38N 39°48' E 025°47'212.6
2018-Jul-15 20:29N 39°50' E 025°48'184 6.7
2018-Jul-14 17:10N 41°24' E 029°16'0 0.2
2018-Jul-14 17:00N 41°24' E 029°16'0 0.3
2018-Jul-14 16:29N 41°24' E 029°16'0 0.3
2018-Jul-14 16:00N 41°24' E 029°16'0 0.4
2018-Jul-14 14:45N 41°25' E 029°16'42 3.5
2018-Jul-14 02:41N 41°48' E 030°03'411.1
2018-Jul-14 02:20N 41°50' E 030°08'411.1
2018-Jul-14 01:59N 41°52' E 030°12'511.1
2018-Jul-14 01:30N 41°55' E 030°18'2911.2
2018-Jul-13 22:54N 42°11' E 030°51'1311.3
2018-Jul-13 21:46N 42°18' E 031°05'7211.4
2018-Jul-13 15:30N 42°57' E 032°27'7310.7
2018-Jul-13 08:41N 43°36' E 033°51'210.6
2018-Jul-13 08:30N 43°37' E 033°53'510.7
2018-Jul-13 08:00N 43°40' E 033°59'510.8
2018-Jul-13 07:30N 43°43' E 034°05'510.6
2018-Jul-13 07:00N 43°46' E 034°12'510.7
2018-Jul-13 06:30N 43°49' E 034°18'510.8
2018-Jul-13 06:00N 43°52' E 034°24'510.9
2018-Jul-13 05:30N 43°55' E 034°30'511.0
2018-Jul-13 05:00N 43°58' E 034°37'1311.1
2018-Jul-13 03:48N 44°05' E 034°52'8511.0
2018-Jul-12 20:05N 44°55' E 036°29'110.8
2018-Jul-12 19:58N 44°56' E 036°29'10 1.9
2018-Jul-12 14:41N 45°06' E 036°33'0 0.0
2018-Jul-12 14:29N 45°06' E 036°33'0 0.0
2018-Jul-12 13:56N 45°06' E 036°33'0 0.0
2018-Jul-12 13:29N 45°06' E 036°33'0 0.0
2018-Jul-12 12:56N 45°06' E 036°33'0 0.0
2018-Jul-12 03:56N 45°06' E 036°33'0 0.0
2018-Jul-12 03:23N 45°06' E 036°33'0 0.0
2018-Jul-12 02:41N 45°06' E 036°33'0 0.0
2018-Jul-12 00:20N 45°06' E 036°33'0 0.0
2018-Jul-11 21:17N 45°06' E 036°33'0 0.0
2018-Jul-10 12:23N 45°06' E 036°33'0 0.0
2018-Jul-09 12:08N 45°06' E 036°33'0 0.1
2018-Jul-09 10:59N 45°06' E 036°33'0 0.0
2018-Jul-09 10:05N 45°06' E 036°33'0 0.0
2018-Jul-09 09:59N 45°06' E 036°33'  
Track history (hours):
 
Tides and Currents Weather Stations Pressure Air Temp Water Temp Dewpoint Dewpoint Depression Visibility Wind Speed Wind Dir Waves Ship Positions

Kyra Zafira

Last reported at 2018-Jul-18 18:21 UTC. Time now 2018-Jul-23 11:39 UTC.
Position N 31°28' E 032°18'.

Length 229 m; draft 13.9 m.

Type: Ship (hazmat cat D). MMSI: 636015567.

Date/timePositionNaut miles runAvg speedWind from/ knotsBaromVisibWave heightAir tempDewpointWater temp
2018-Jul-18 18:21N 31°28' E 032°18'0 0.0
2018-Jul-18 17:57N 31°28' E 032°18'0 0.0
2018-Jul-18 13:25N 31°28' E 032°18'0 0.0
2018-Jul-18 12:58N 31°28' E 032°18'0 0.0
2018-Jul-18 12:14N 31°28' E 032°18'0 0.0
2018-Jul-18 11:56N 31°28' E 032°18'0 0.0
2018-Jul-18 03:08N 31°28' E 032°18'0 0.0
2018-Jul-18 02:59N 31°28' E 032°18'0 0.1
2018-Jul-18 01:36N 31°28' E 032°18'0 3.4
2018-Jul-18 01:31N 31°28' E 032°18'8 7.3
2018-Jul-18 00:23N 31°33' E 032°11'410.8
2018-Jul-18 00:00N 31°36' E 032°07'1511.2
2018-Jul-17 22:41N 31°47' E 031°55'311.8
2018-Jul-17 22:24N 31°49' E 031°52'411.7
2018-Jul-17 22:01N 31°52' E 031°48'6511.5
2018-Jul-17 16:25N 32°39' E 030°56'611.6
2018-Jul-17 15:56N 32°43' E 030°52'1011.6
2018-Jul-17 15:06N 32°51' E 030°44'111.7
2018-Jul-17 15:00N 32°51' E 030°43'2211.4
2018-Jul-17 13:06N 33°08' E 030°26'111.3
2018-Jul-17 13:00N 33°09' E 030°25'911.2
2018-Jul-17 12:10N 33°15' E 030°17'411.1
2018-Jul-17 11:50N 33°18' E 030°14'32611.7
2018-Jul-16 07:52N 37°27' E 025°56'512.9
2018-Jul-16 07:31N 37°32' E 025°53'713.2
2018-Jul-16 06:58N 37°38' E 025°50'613.3
2018-Jul-16 06:30N 37°44' E 025°47'12412.6
2018-Jul-15 20:38N 39°48' E 025°47'212.6
2018-Jul-15 20:29N 39°50' E 025°48'184 6.7
2018-Jul-14 17:10N 41°24' E 029°16'0 0.2
2018-Jul-14 17:00N 41°24' E 029°16'0 0.3
2018-Jul-14 16:29N 41°24' E 029°16'0 0.3
2018-Jul-14 16:00N 41°24' E 029°16'0 0.4
2018-Jul-14 14:45N 41°25' E 029°16'42 3.5
2018-Jul-14 02:41N 41°48' E 030°03'411.1
2018-Jul-14 02:20N 41°50' E 030°08'411.1
2018-Jul-14 01:59N 41°52' E 030°12'511.1
2018-Jul-14 01:30N 41°55' E 030°18'2911.2
2018-Jul-13 22:54N 42°11' E 030°51'1311.3
2018-Jul-13 21:46N 42°18' E 031°05'7211.4
2018-Jul-13 15:30N 42°57' E 032°27'7310.7
2018-Jul-13 08:41N 43°36' E 033°51'210.6
2018-Jul-13 08:30N 43°37' E 033°53'510.7
2018-Jul-13 08:00N 43°40' E 033°59'510.8
2018-Jul-13 07:30N 43°43' E 034°05'510.6
2018-Jul-13 07:00N 43°46' E 034°12'510.7
2018-Jul-13 06:30N 43°49' E 034°18'510.8
2018-Jul-13 06:00N 43°52' E 034°24'510.9
2018-Jul-13 05:30N 43°55' E 034°30'511.0
2018-Jul-13 05:00N 43°58' E 034°37'1311.1
2018-Jul-13 03:48N 44°05' E 034°52'8511.0
2018-Jul-12 20:05N 44°55' E 036°29'110.8
2018-Jul-12 19:58N 44°56' E 036°29'10 1.9
2018-Jul-12 14:41N 45°06' E 036°33'0 0.0
2018-Jul-12 14:29N 45°06' E 036°33'0 0.0
2018-Jul-12 13:56N 45°06' E 036°33'0 0.0
2018-Jul-12 13:29N 45°06' E 036°33'0 0.0
2018-Jul-12 12:56N 45°06' E 036°33'0 0.0
2018-Jul-12 03:56N 45°06' E 036°33'0 0.0
2018-Jul-12 03:23N 45°06' E 036°33'0 0.0
2018-Jul-12 02:41N 45°06' E 036°33'0 0.0
2018-Jul-12 00:20N 45°06' E 036°33'0 0.0
2018-Jul-11 21:17N 45°06' E 036°33'0 0.0
2018-Jul-10 12:23N 45°06' E 036°33'0 0.0
2018-Jul-09 12:08N 45°06' E 036°33'0 0.1
2018-Jul-09 10:59N 45°06' E 036°33'0 0.0
2018-Jul-09 10:05N 45°06' E 036°33'0 0.0
2018-Jul-09 09:59N 45°06' E 036°33'  

Dump ship's entire track history